sensor_id;sensor_type;location;lat;lon;timestamp;pressure;altitude;pressure_sealevel;temperature;humidity
52745;BME280;38637;49.984;20.426;2023-04-26T00:00:36;98678.84;;;7.50;89.23
52745;BME280;38637;49.984;20.426;2023-04-26T00:03:06;98676.38;;;7.49;89.12
52745;BME280;38637;49.984;20.426;2023-04-26T00:05:32;98672.03;;;7.48;89.30
52745;BME280;38637;49.984;20.426;2023-04-26T00:07:57;98673.09;;;7.47;89.36
52745;BME280;38637;49.984;20.426;2023-04-26T00:10:23;98675.81;;;7.47;89.74
52745;BME280;38637;49.984;20.426;2023-04-26T00:12:48;98670.38;;;7.47;89.72
52745;BME280;38637;49.984;20.426;2023-04-26T00:15:14;98666.84;;;7.46;89.59
52745;BME280;38637;49.984;20.426;2023-04-26T00:17:39;98671.44;;;7.46;89.21
52745;BME280;38637;49.984;20.426;2023-04-26T00:20:05;98673.09;;;7.47;89.36
52745;BME280;38637;49.984;20.426;2023-04-26T00:22:33;98673.34;;;7.45;89.56
52745;BME280;38637;49.984;20.426;2023-04-26T00:24:58;98675.25;;;7.45;89.83
52745;BME280;38637;49.984;20.426;2023-04-26T00:27:24;98671.16;;;7.42;89.86
52745;BME280;38637;49.984;20.426;2023-04-26T00:29:49;98671.16;;;7.42;89.96
52745;BME280;38637;49.984;20.426;2023-04-26T00:32:14;98684.75;;;7.42;89.62
52745;BME280;38637;49.984;20.426;2023-04-26T00:34:39;98684.16;;;7.40;89.96
52745;BME280;38637;49.984;20.426;2023-04-26T00:37:05;98677.91;;;7.40;89.86
52745;BME280;38637;49.984;20.426;2023-04-26T00:39:30;98683.34;;;7.40;89.80
52745;BME280;38637;49.984;20.426;2023-04-26T00:41:56;98681.72;;;7.39;89.77
52745;BME280;38637;49.984;20.426;2023-04-26T00:44:22;98686.06;;;7.40;89.80
52745;BME280;38637;49.984;20.426;2023-04-26T00:46:48;98683.34;;;7.40;89.60
52745;BME280;38637;49.984;20.426;2023-04-26T00:49:18;98691.25;;;7.41;89.55
52745;BME280;38637;49.984;20.426;2023-04-26T00:51:46;98696.41;;;7.43;89.25
52745;BME280;38637;49.984;20.426;2023-04-26T00:54:12;98696.41;;;7.43;89.28
52745;BME280;38637;49.984;20.426;2023-04-26T00:56:38;98690.16;;;7.42;89.19
52745;BME280;38637;49.984;20.426;2023-04-26T00:59:04;98699.41;;;7.41;89.35
52745;BME280;38637;49.984;20.426;2023-04-26T01:01:30;98692.06;;;7.42;89.12
52745;BME280;38637;49.984;20.426;2023-04-26T01:03:56;98700.22;;;7.42;88.79
52745;BME280;38637;49.984;20.426;2023-04-26T01:06:22;98680.56;;;7.29;88.42
52745;BME280;38637;49.984;20.426;2023-04-26T01:08:50;98695.31;;;7.44;88.40
52745;BME280;38637;49.984;20.426;2023-04-26T01:11:16;98694.78;;;7.42;88.39
52745;BME280;38637;49.984;20.426;2023-04-26T01:13:43;98690.94;;;7.37;88.26
52745;BME280;38637;49.984;20.426;2023-04-26T01:16:10;98695.09;;;7.45;87.99
52745;BME280;38637;49.984;20.426;2023-04-26T01:18:37;98702.13;;;7.41;88.19
52745;BME280;38637;49.984;20.426;2023-04-26T01:21:03;98686.59;;;7.36;88.17
52745;BME280;38637;49.984;20.426;2023-04-26T01:23:29;98684.31;;;7.28;87.95
52745;BME280;38637;49.984;20.426;2023-04-26T01:25:54;98694.66;;;7.26;87.18
52745;BME280;38637;49.984;20.426;2023-04-26T01:28:20;98710.38;;;7.24;87.39
52745;BME280;38637;49.984;20.426;2023-04-26T01:30:45;98704.34;;;7.22;86.77
52745;BME280;38637;49.984;20.426;2023-04-26T01:33:11;98710.31;;;7.19;86.37
52745;BME280;38637;49.984;20.426;2023-04-26T01:35:36;98708.66;;;7.18;86.53
52745;BME280;38637;49.984;20.426;2023-04-26T01:38:01;98715.72;;;7.19;86.55
52745;BME280;38637;49.984;20.426;2023-04-26T01:40:28;98713.00;;;7.19;86.66
52745;BME280;38637;49.984;20.426;2023-04-26T01:42:53;98725.53;;;7.20;86.60
52745;BME280;38637;49.984;20.426;2023-04-26T01:45:18;98716.06;;;7.23;87.14
52745;BME280;38637;49.984;20.426;2023-04-26T01:47:44;98728.78;;;7.22;86.74
52745;BME280;38637;49.984;20.426;2023-04-26T01:50:09;98722.00;;;7.20;86.21
52745;BME280;38637;49.984;20.426;2023-04-26T01:52:35;98732.88;;;7.20;85.97
52745;BME280;38637;49.984;20.426;2023-04-26T01:55:00;98732.88;;;7.20;85.65
52745;BME280;38637;49.984;20.426;2023-04-26T01:57:25;98732.03;;;7.19;85.11
52745;BME280;38637;49.984;20.426;2023-04-26T01:59:51;98735.59;;;7.20;85.18
52745;BME280;38637;49.984;20.426;2023-04-26T02:02:16;98728.19;;;7.15;84.97
52745;BME280;38637;49.984;20.426;2023-04-26T02:04:43;98733.03;;;7.13;84.93
52745;BME280;38637;49.984;20.426;2023-04-26T02:07:08;98731.63;;;7.05;84.42
52745;BME280;38637;49.984;20.426;2023-04-26T02:09:33;98734.25;;;7.00;83.62
52745;BME280;38637;49.984;20.426;2023-04-26T02:11:59;98741.28;;;6.96;82.72
52745;BME280;38637;49.984;20.426;2023-04-26T02:14:24;98741.22;;;6.91;82.89
52745;BME280;38637;49.984;20.426;2023-04-26T02:16:49;98744.13;;;6.84;82.69
52745;BME280;38637;49.984;20.426;2023-04-26T02:19:16;98740.00;;;6.82;82.54
52745;BME280;38637;49.984;20.426;2023-04-26T02:21:55;98737.00;;;6.78;82.29
52745;BME280;38637;49.984;20.426;2023-04-26T02:24:24;98746.44;;;6.76;81.16
52745;BME280;38637;49.984;20.426;2023-04-26T02:26:50;98751.34;;;6.74;81.14
52745;BME280;38637;49.984;20.426;2023-04-26T02:29:16;98749.13;;;6.71;81.37
52745;BME280;38637;49.984;20.426;2023-04-26T02:31:41;98756.19;;;6.72;80.39
52745;BME280;38637;49.984;20.426;2023-04-26T02:34:07;98760.53;;;6.73;79.93
52745;BME280;38637;49.984;20.426;2023-04-26T02:36:32;98762.19;;;6.74;79.78
52745;BME280;38637;49.984;20.426;2023-04-26T02:38:58;98770.56;;;6.72;79.76
52745;BME280;38637;49.984;20.426;2023-04-26T02:41:24;98768.34;;;6.69;79.06
52745;BME280;38637;49.984;20.426;2023-04-26T02:43:50;98761.53;;;6.66;79.09
52745;BME280;38637;49.984;20.426;2023-04-26T02:46:15;98767.97;;;6.60;78.49
52745;BME280;38637;49.984;20.426;2023-04-26T02:48:41;98757.56;;;6.52;78.01
52745;BME280;38637;49.984;20.426;2023-04-26T02:51:06;98767.69;;;6.40;77.26
52745;BME280;38637;49.984;20.426;2023-04-26T02:53:31;98774.59;;;6.31;76.42
52745;BME280;38637;49.984;20.426;2023-04-26T02:55:57;98777.47;;;6.24;76.47
52745;BME280;38637;49.984;20.426;2023-04-26T02:58:22;98779.81;;;6.15;77.14
52745;BME280;38637;49.984;20.426;2023-04-26T03:00:47;98780.44;;;6.06;77.53
52745;BME280;38637;49.984;20.426;2023-04-26T03:03:13;98786.84;;;5.99;77.67
52745;BME280;38637;49.984;20.426;2023-04-26T03:05:39;98779.69;;;5.93;78.08
52745;BME280;38637;49.984;20.426;2023-04-26T03:08:05;98780.91;;;5.86;77.86
52745;BME280;38637;49.984;20.426;2023-04-26T03:10:31;98786.00;;;5.82;77.85
52745;BME280;38637;49.984;20.426;2023-04-26T03:12:56;98785.91;;;5.77;77.80
52745;BME280;38637;49.984;20.426;2023-04-26T03:15:21;98788.50;;;5.72;78.02
52745;BME280;38637;49.984;20.426;2023-04-26T03:17:47;98794.09;;;5.65;77.72
52745;BME280;38637;49.984;20.426;2023-04-26T03:20:13;98794.56;;;5.62;77.61
52745;BME280;38637;49.984;20.426;2023-04-26T03:22:38;98808.59;;;5.59;77.59
52745;BME280;38637;49.984;20.426;2023-04-26T03:25:05;98806.63;;;5.55;77.23
52745;BME280;38637;49.984;20.426;2023-04-26T03:27:32;98804.91;;;5.48;76.64
52745;BME280;38637;49.984;20.426;2023-04-26T03:29:57;98819.00;;;5.50;76.80
52745;BME280;38637;49.984;20.426;2023-04-26T03:32:22;98824.91;;;5.47;75.70
52745;BME280;38637;49.984;20.426;2023-04-26T03:34:48;98815.16;;;5.46;75.62
52745;BME280;38637;49.984;20.426;2023-04-26T03:37:14;98814.81;;;5.43;75.36
52745;BME280;38637;49.984;20.426;2023-04-26T03:39:39;98825.97;;;5.46;75.51
52745;BME280;38637;49.984;20.426;2023-04-26T03:42:05;98818.09;;;5.45;74.84
52745;BME280;38637;49.984;20.426;2023-04-26T03:44:30;98830.69;;;5.51;74.89
52745;BME280;38637;49.984;20.426;2023-04-26T03:46:55;98832.31;;;5.52;74.69
52745;BME280;38637;49.984;20.426;2023-04-26T03:49:21;98844.28;;;5.56;74.22
52745;BME280;38637;49.984;20.426;2023-04-26T03:51:46;98838.41;;;5.59;74.30
52745;BME280;38637;49.984;20.426;2023-04-26T03:54:12;98843.31;;;5.62;74.34
52745;BME280;38637;49.984;20.426;2023-04-26T03:56:37;98834.50;;;5.67;74.51
52745;BME280;38637;49.984;20.426;2023-04-26T03:59:04;98843.59;;;5.78;73.93
52745;BME280;38637;49.984;20.426;2023-04-26T04:01:29;98836.72;;;5.87;74.00
52745;BME280;38637;49.984;20.426;2023-04-26T04:03:56;98847.44;;;5.93;73.34
52745;BME280;38637;49.984;20.426;2023-04-26T04:06:21;98843.25;;;6.03;73.42
52745;BME280;38637;49.984;20.426;2023-04-26T04:08:46;98843.13;;;6.09;73.24
52745;BME280;38637;49.984;20.426;2023-04-26T04:11:12;98841.88;;;6.17;73.00
52745;BME280;38637;49.984;20.426;2023-04-26T04:13:37;98845.81;;;6.26;72.70
52745;BME280;38637;49.984;20.426;2023-04-26T04:16:03;98842.72;;;6.34;72.42
52745;BME280;38637;49.984;20.426;2023-04-26T04:18:28;98849.38;;;6.43;72.47
52745;BME280;38637;49.984;20.426;2023-04-26T04:20:54;98849.19;;;6.50;71.97
52745;BME280;38637;49.984;20.426;2023-04-26T04:23:19;98849.84;;;6.57;71.66
52745;BME280;38637;49.984;20.426;2023-04-26T04:25:45;98848.59;;;6.65;71.49
52745;BME280;38637;49.984;20.426;2023-04-26T04:28:12;98855.00;;;6.76;71.06
52745;BME280;38637;49.984;20.426;2023-04-26T04:30:38;98851.09;;;6.88;71.10
52745;BME280;38637;49.984;20.426;2023-04-26T04:33:04;98858.31;;;7.00;70.71
52745;BME280;38637;49.984;20.426;2023-04-26T04:35:30;98857.56;;;7.04;69.81
52745;BME280;38637;49.984;20.426;2023-04-26T04:37:57;98859.53;;;7.09;70.12
52745;BME280;38637;49.984;20.426;2023-04-26T04:40:23;98870.47;;;7.14;69.96
52745;BME280;38637;49.984;20.426;2023-04-26T04:42:49;98863.22;;;7.20;69.30
52745;BME280;38637;49.984;20.426;2023-04-26T04:45:15;98874.63;;;7.22;69.55
52745;BME280;38637;49.984;20.426;2023-04-26T04:47:42;98861.31;;;7.20;69.94
52745;BME280;38637;49.984;20.426;2023-04-26T04:50:07;98883.78;;;7.37;69.44
52745;BME280;38637;49.984;20.426;2023-04-26T04:52:33;98877.91;;;7.46;69.03
52745;BME280;38637;49.984;20.426;2023-04-26T04:54:59;98873.59;;;7.50;67.68
52745;BME280;38637;49.984;20.426;2023-04-26T04:57:25;98876.66;;;7.53;68.21
52745;BME280;38637;49.984;20.426;2023-04-26T04:59:50;98888.72;;;7.63;67.94
52745;BME280;38637;49.984;20.426;2023-04-26T05:02:16;98880.22;;;7.59;67.12
52745;BME280;38637;49.984;20.426;2023-04-26T05:04:41;98879.47;;;7.64;67.68
52745;BME280;38637;49.984;20.426;2023-04-26T05:07:06;98875.94;;;7.63;66.49
52745;BME280;38637;49.984;20.426;2023-04-26T05:09:32;98891.16;;;7.64;66.57
52745;BME280;38637;49.984;20.426;2023-04-26T05:11:57;98892.44;;;7.56;66.45
52745;BME280;38637;49.984;20.426;2023-04-26T05:14:23;98889.66;;;7.51;66.53
52745;BME280;38637;49.984;20.426;2023-04-26T05:16:48;98905.44;;;7.54;66.22
52745;BME280;38637;49.984;20.426;2023-04-26T05:19:13;98888.88;;;7.56;66.51
52745;BME280;38637;49.984;20.426;2023-04-26T05:21:39;98901.22;;;7.64;66.66
52745;BME280;38637;49.984;20.426;2023-04-26T05:24:04;98910.56;;;7.73;67.16
52745;BME280;38637;49.984;20.426;2023-04-26T05:26:29;98921.00;;;7.81;66.55
52745;BME280;38637;49.984;20.426;2023-04-26T05:28:55;98901.00;;;7.70;65.65
52745;BME280;38637;49.984;20.426;2023-04-26T05:31:20;98904.84;;;7.74;65.58
52745;BME280;38637;49.984;20.426;2023-04-26T05:33:45;98914.47;;;7.82;65.86
52745;BME280;38637;49.984;20.426;2023-04-26T05:36:11;98919.91;;;7.82;65.71
52745;BME280;38637;49.984;20.426;2023-04-26T05:38:37;98912.56;;;7.82;64.92
52745;BME280;38637;49.984;20.426;2023-04-26T05:41:02;98924.03;;;7.85;66.59
52745;BME280;38637;49.984;20.426;2023-04-26T05:43:27;98926.81;;;7.90;66.34
52745;BME280;38637;49.984;20.426;2023-04-26T05:45:54;98921.38;;;7.90;65.68
52745;BME280;38637;49.984;20.426;2023-04-26T05:48:20;98923.88;;;7.96;66.09
52745;BME280;38637;49.984;20.426;2023-04-26T05:50:46;98933.97;;;8.01;65.87
52745;BME280;38637;49.984;20.426;2023-04-26T05:53:11;98925.88;;;8.06;65.01
52745;BME280;38637;49.984;20.426;2023-04-26T05:55:37;98921.47;;;8.00;64.68
52745;BME280;38637;49.984;20.426;2023-04-26T05:58:02;98934.28;;;8.04;65.88
52745;BME280;38637;49.984;20.426;2023-04-26T06:00:29;98928.03;;;8.04;65.51
52745;BME280;38637;49.984;20.426;2023-04-26T06:02:54;98924.25;;;8.05;64.42
52745;BME280;38637;49.984;20.426;2023-04-26T06:05:20;98936.31;;;8.14;62.96
52745;BME280;38637;49.984;20.426;2023-04-26T06:07:45;98952.00;;;8.34;63.83
52745;BME280;38637;49.984;20.426;2023-04-26T06:10:11;98948.41;;;8.56;62.56
52745;BME280;38637;49.984;20.426;2023-04-26T06:12:37;98933.06;;;8.77;61.63
52745;BME280;38637;49.984;20.426;2023-04-26T06:15:03;98947.78;;;9.13;60.29
52745;BME280;38637;49.984;20.426;2023-04-26T06:17:28;98941.13;;;9.41;60.16
52745;BME280;38637;49.984;20.426;2023-04-26T06:19:54;98947.75;;;9.55;60.35
52745;BME280;38637;49.984;20.426;2023-04-26T06:22:19;98951.66;;;9.85;58.72
52745;BME280;38637;49.984;20.426;2023-04-26T06:24:44;98955.53;;;9.99;57.95
52745;BME280;38637;49.984;20.426;2023-04-26T06:27:10;98951.19;;;9.98;58.00
52745;BME280;38637;49.984;20.426;2023-04-26T06:29:35;98961.56;;;10.01;58.61
52745;BME280;38637;49.984;20.426;2023-04-26T06:32:00;98953.13;;;10.08;58.59
52745;BME280;38637;49.984;20.426;2023-04-26T06:34:26;98953.34;;;9.96;57.73
52745;BME280;38637;49.984;20.426;2023-04-26T06:36:52;98946.47;;;9.78;58.53
52745;BME280;38637;49.984;20.426;2023-04-26T06:39:17;98928.78;;;9.33;59.67
52745;BME280;38637;49.984;20.426;2023-04-26T06:41:42;98953.16;;;9.08;59.72
52745;BME280;38637;49.984;20.426;2023-04-26T06:44:08;98941.75;;;8.73;61.30
52745;BME280;38637;49.984;20.426;2023-04-26T06:46:33;98956.00;;;8.54;60.20
52745;BME280;38637;49.984;20.426;2023-04-26T06:49:00;98948.28;;;8.40;61.73
52745;BME280;38637;49.984;20.426;2023-04-26T06:51:25;98948.75;;;8.37;61.97
52745;BME280;38637;49.984;20.426;2023-04-26T06:53:51;98935.25;;;8.42;62.70
52745;BME280;38637;49.984;20.426;2023-04-26T06:56:16;98957.81;;;8.43;61.63
52745;BME280;38637;49.984;20.426;2023-04-26T06:59:03;98951.59;;;8.47;62.06
52745;BME280;38637;49.984;20.426;2023-04-26T07:01:30;98959.06;;;8.57;60.66
52745;BME280;38637;49.984;20.426;2023-04-26T07:04:04;98959.13;;;8.67;62.02
52745;BME280;38637;49.984;20.426;2023-04-26T07:06:32;98948.09;;;8.84;62.04
52745;BME280;38637;49.984;20.426;2023-04-26T07:08:58;98949.34;;;9.09;61.75
52745;BME280;38637;49.984;20.426;2023-04-26T07:11:24;98962.78;;;9.20;59.58
52745;BME280;38637;49.984;20.426;2023-04-26T07:13:49;98939.94;;;9.27;58.51
52745;BME280;38637;49.984;20.426;2023-04-26T07:16:15;98959.56;;;9.29;55.63
52745;BME280;38637;49.984;20.426;2023-04-26T07:18:41;98947.84;;;9.28;55.57
52745;BME280;38637;49.984;20.426;2023-04-26T07:21:06;98966.97;;;9.38;57.26
52745;BME280;38637;49.984;20.426;2023-04-26T07:23:32;98967.25;;;9.37;55.21
52745;BME280;38637;49.984;20.426;2023-04-26T07:25:57;98968.00;;;9.27;55.06
52745;BME280;38637;49.984;20.426;2023-04-26T07:28:23;98961.72;;;9.22;54.67
52745;BME280;38637;49.984;20.426;2023-04-26T07:30:48;98951.97;;;9.31;55.83
52745;BME280;38637;49.984;20.426;2023-04-26T07:33:14;98953.50;;;9.69;56.17
52745;BME280;38637;49.984;20.426;2023-04-26T07:35:39;98976.41;;;9.73;52.67
52745;BME280;38637;49.984;20.426;2023-04-26T07:38:04;98967.22;;;9.84;51.70
52745;BME280;38637;49.984;20.426;2023-04-26T07:40:31;98962.63;;;9.95;53.14
52745;BME280;38637;49.984;20.426;2023-04-26T07:42:56;98963.59;;;9.69;52.78
52745;BME280;38637;49.984;20.426;2023-04-26T07:45:22;98966.84;;;9.65;52.44
52745;BME280;38637;49.984;20.426;2023-04-26T07:47:47;98972.66;;;9.84;53.19
52745;BME280;38637;49.984;20.426;2023-04-26T07:50:12;98967.72;;;9.71;53.37
52745;BME280;38637;49.984;20.426;2023-04-26T07:52:38;98949.34;;;9.51;52.49
52745;BME280;38637;49.984;20.426;2023-04-26T07:55:04;98963.50;;;9.48;52.14
52745;BME280;38637;49.984;20.426;2023-04-26T07:57:29;98962.25;;;9.71;53.27
52745;BME280;38637;49.984;20.426;2023-04-26T07:59:54;98963.94;;;9.87;52.61
52745;BME280;38637;49.984;20.426;2023-04-26T08:02:20;98966.09;;;9.85;51.53
52745;BME280;38637;49.984;20.426;2023-04-26T08:04:47;98970.97;;;9.73;50.20
52745;BME280;38637;49.984;20.426;2023-04-26T08:07:19;98968.78;;;9.70;50.97
52745;BME280;38637;49.984;20.426;2023-04-26T08:09:46;98975.75;;;10.08;50.54
52745;BME280;38637;49.984;20.426;2023-04-26T08:12:11;98956.19;;;10.27;50.37
52745;BME280;38637;49.984;20.426;2023-04-26T08:14:37;98969.34;;;10.50;49.75
52745;BME280;38637;49.984;20.426;2023-04-26T08:17:03;98976.16;;;10.53;48.91
52745;BME280;38637;49.984;20.426;2023-04-26T08:19:29;98975.34;;;10.63;49.81
52745;BME280;38637;49.984;20.426;2023-04-26T08:21:56;98974.00;;;10.65;51.25
52745;BME280;38637;49.984;20.426;2023-04-26T08:24:22;98981.91;;;10.67;47.06
52745;BME280;38637;49.984;20.426;2023-04-26T08:26:47;98975.06;;;10.54;49.09
52745;BME280;38637;49.984;20.426;2023-04-26T08:29:12;98976.13;;;10.43;48.52
52745;BME280;38637;49.984;20.426;2023-04-26T08:31:39;98978.91;;;10.68;50.26
52745;BME280;38637;49.984;20.426;2023-04-26T08:34:04;98953.50;;;10.57;48.50
52745;BME280;38637;49.984;20.426;2023-04-26T08:36:30;98978.91;;;10.53;48.09
52745;BME280;38637;49.984;20.426;2023-04-26T08:38:56;98976.03;;;10.12;48.46
52745;BME280;38637;49.984;20.426;2023-04-26T08:41:22;98975.97;;;9.97;48.85
52745;BME280;38637;49.984;20.426;2023-04-26T08:43:48;98989.38;;;10.03;49.49
52745;BME280;38637;49.984;20.426;2023-04-26T08:46:16;98985.84;;;10.08;48.00
52745;BME280;38637;49.984;20.426;2023-04-26T08:48:45;98974.22;;;10.33;48.87
52745;BME280;38637;49.984;20.426;2023-04-26T08:51:13;98977.78;;;10.49;47.35
52745;BME280;38637;49.984;20.426;2023-04-26T08:53:40;98983.81;;;10.56;47.35
52745;BME280;38637;49.984;20.426;2023-04-26T08:56:07;98984.91;;;10.60;46.85
52745;BME280;38637;49.984;20.426;2023-04-26T08:58:34;98981.66;;;10.68;46.07
52745;BME280;38637;49.984;20.426;2023-04-26T09:01:00;98983.28;;;10.59;45.92
52745;BME280;38637;49.984;20.426;2023-04-26T09:03:27;98983.75;;;10.30;45.81
52745;BME280;38637;49.984;20.426;2023-04-26T09:05:53;98986.97;;;10.22;45.93
52745;BME280;38637;49.984;20.426;2023-04-26T09:08:19;98985.63;;;10.20;44.94
52745;BME280;38637;49.984;20.426;2023-04-26T09:10:46;98994.63;;;10.20;46.30
52745;BME280;38637;49.984;20.426;2023-04-26T09:13:11;98979.66;;;10.28;45.42
52745;BME280;38637;49.984;20.426;2023-04-26T09:15:37;98983.97;;;10.24;45.87
52745;BME280;38637;49.984;20.426;2023-04-26T09:18:24;98986.09;;;10.06;47.38
52745;BME280;38637;49.984;20.426;2023-04-26T09:21:06;98976.91;;;10.28;47.09
52745;BME280;38637;49.984;20.426;2023-04-26T09:23:32;98989.25;;;10.51;45.44
52745;BME280;38637;49.984;20.426;2023-04-26T09:26:18;98973.72;;;11.02;46.37
52745;BME280;38637;49.984;20.426;2023-04-26T09:28:45;98968.19;;;11.38;45.13
52745;BME280;38637;49.984;20.426;2023-04-26T09:31:13;98965.19;;;11.40;43.97
52745;BME280;38637;49.984;20.426;2023-04-26T09:33:57;98972.06;;;11.12;43.41
52745;BME280;38637;49.984;20.426;2023-04-26T09:36:23;98969.63;;;11.00;44.66
52745;BME280;38637;49.984;20.426;2023-04-26T09:38:48;98987.09;;;10.89;44.18
52745;BME280;38637;49.984;20.426;2023-04-26T09:41:13;98988.72;;;10.79;42.97
52745;BME280;38637;49.984;20.426;2023-04-26T09:43:38;98990.63;;;10.74;43.93
52745;BME280;38637;49.984;20.426;2023-04-26T09:46:04;98978.38;;;10.71;43.19
52745;BME280;38637;49.984;20.426;2023-04-26T09:48:33;98980.25;;;10.45;43.70
52745;BME280;38637;49.984;20.426;2023-04-26T09:53:29;98972.28;;;10.28;44.37
52745;BME280;38637;49.984;20.426;2023-04-26T09:55:56;98969.56;;;10.44;44.15
52745;BME280;38637;49.984;20.426;2023-04-26T09:58:22;98976.97;;;10.48;43.50
52745;BME280;38637;49.984;20.426;2023-04-26T10:00:49;98975.31;;;10.37;45.00
52745;BME280;38637;49.984;20.426;2023-04-26T10:03:17;98968.22;;;10.36;46.70
52745;BME280;38637;49.984;20.426;2023-04-26T10:05:42;98976.59;;;10.19;47.32
52745;BME280;38637;49.984;20.426;2023-04-26T10:08:08;98982.31;;;10.07;47.19
52745;BME280;38637;49.984;20.426;2023-04-26T10:10:34;98967.88;;;10.17;45.26
52745;BME280;38637;49.984;20.426;2023-04-26T10:13:00;98975.88;;;10.54;45.99
52745;BME280;38637;49.984;20.426;2023-04-26T10:15:26;98967.72;;;10.60;44.82
52745;BME280;38637;49.984;20.426;2023-04-26T10:17:51;98967.41;;;10.46;46.26
52745;BME280;38637;49.984;20.426;2023-04-26T10:20:17;98980.47;;;10.33;45.81
52745;BME280;38637;49.984;20.426;2023-04-26T10:22:50;98985.47;;;10.62;45.53
52745;BME280;38637;49.984;20.426;2023-04-26T10:25:17;98982.19;;;10.96;44.46
52745;BME280;38637;49.984;20.426;2023-04-26T10:30:09;98993.91;;;11.37;43.99
52745;BME280;38637;49.984;20.426;2023-04-26T10:35:16;99003.19;;;11.46;45.04
52745;BME280;38637;49.984;20.426;2023-04-26T10:40:25;98991.16;;;11.42;48.70
52745;BME280;38637;49.984;20.426;2023-04-26T10:45:40;99016.00;;;11.61;45.85
52745;BME280;38637;49.984;20.426;2023-04-26T10:59:10;98999.94;;;10.83;45.36
52745;BME280;38637;49.984;20.426;2023-04-26T11:01:36;98996.38;;;10.67;46.07
52745;BME280;38637;49.984;20.426;2023-04-26T11:04:07;99002.94;;;10.71;44.15
52745;BME280;38637;49.984;20.426;2023-04-26T11:07:01;98995.84;;;11.06;45.92
52745;BME280;38637;49.984;20.426;2023-04-26T11:09:37;99005.69;;;11.12;43.30
52745;BME280;38637;49.984;20.426;2023-04-26T11:12:10;98988.44;;;11.27;43.60
52745;BME280;38637;49.984;20.426;2023-04-26T11:14:37;98995.31;;;11.14;43.96
52745;BME280;38637;49.984;20.426;2023-04-26T11:17:05;99019.06;;;11.09;45.85
52745;BME280;38637;49.984;20.426;2023-04-26T11:19:31;99021.81;;;10.93;44.68
52745;BME280;38637;49.984;20.426;2023-04-26T11:22:00;99014.66;;;10.67;46.28
52745;BME280;38637;49.984;20.426;2023-04-26T11:24:28;99047.38;;;10.41;46.67
52745;BME280;38637;49.984;20.426;2023-04-26T11:26:54;99029.22;;;10.09;46.57
52745;BME280;38637;49.984;20.426;2023-04-26T11:29:19;99047.09;;;9.80;47.48
52745;BME280;38637;49.984;20.426;2023-04-26T11:31:56;99043.97;;;9.61;48.72
52745;BME280;38637;49.984;20.426;2023-04-26T11:34:30;99036.91;;;9.65;48.31
52745;BME280;38637;49.984;20.426;2023-04-26T11:36:55;99035.75;;;9.98;46.19
52745;BME280;38637;49.984;20.426;2023-04-26T11:39:21;99045.50;;;10.47;45.41
52745;BME280;38637;49.984;20.426;2023-04-26T11:41:47;99045.25;;;10.74;44.90
52745;BME280;38637;49.984;20.426;2023-04-26T11:44:17;99044.47;;;10.89;44.29
52745;BME280;38637;49.984;20.426;2023-04-26T11:46:42;99050.22;;;10.87;45.47
52745;BME280;38637;49.984;20.426;2023-04-26T11:49:08;99049.13;;;11.03;46.02
52745;BME280;38637;49.984;20.426;2023-04-26T11:51:33;99039.84;;;11.25;42.64
52745;BME280;38637;49.984;20.426;2023-04-26T11:53:59;99043.94;;;11.12;43.91
52745;BME280;38637;49.984;20.426;2023-04-26T11:56:25;99051.59;;;11.36;43.72
52745;BME280;38637;49.984;20.426;2023-04-26T11:58:51;99032.91;;;11.79;43.67
52745;BME280;38637;49.984;20.426;2023-04-26T12:01:25;99034.25;;;11.81;44.00
52745;BME280;38637;49.984;20.426;2023-04-26T12:03:55;99016.81;;;11.67;41.82
52745;BME280;38637;49.984;20.426;2023-04-26T12:06:40;99030.50;;;11.46;42.50
52745;BME280;38637;49.984;20.426;2023-04-26T12:09:06;99031.56;;;11.71;41.62
52745;BME280;38637;49.984;20.426;2023-04-26T12:11:38;99027.66;;;12.03;43.73
52745;BME280;38637;49.984;20.426;2023-04-26T12:14:04;99023.16;;;12.32;41.47
52745;BME280;38637;49.984;20.426;2023-04-26T12:16:30;99022.31;;;12.37;39.72
52745;BME280;38637;49.984;20.426;2023-04-26T12:18:55;99038.41;;;11.79;40.46
52745;BME280;38637;49.984;20.426;2023-04-26T12:21:21;99042.56;;;11.30;43.35
52745;BME280;38637;49.984;20.426;2023-04-26T12:23:47;99028.91;;;10.84;44.30
52745;BME280;38637;49.984;20.426;2023-04-26T12:26:13;99056.47;;;10.62;45.63
52745;BME280;38637;49.984;20.426;2023-04-26T12:28:39;99056.13;;;10.48;46.51
52745;BME280;38637;49.984;20.426;2023-04-26T12:31:05;99061.53;;;10.33;46.85
52745;BME280;38637;49.984;20.426;2023-04-26T12:33:31;99066.50;;;10.46;47.09
52745;BME280;38637;49.984;20.426;2023-04-26T12:36:07;99068.44;;;10.51;44.78
52745;BME280;38637;49.984;20.426;2023-04-26T12:38:33;99060.03;;;10.78;41.96
52745;BME280;38637;49.984;20.426;2023-04-26T12:40:59;99054.34;;;11.05;42.43
52745;BME280;38637;49.984;20.426;2023-04-26T12:43:25;99061.16;;;11.13;43.32
52745;BME280;38637;49.984;20.426;2023-04-26T12:45:51;99067.97;;;11.00;44.89
52745;BME280;38637;49.984;20.426;2023-04-26T12:48:16;99067.66;;;10.76;44.42
52745;BME280;38637;49.984;20.426;2023-04-26T12:50:41;99063.59;;;10.84;44.33
52745;BME280;38637;49.984;20.426;2023-04-26T12:53:07;99076.09;;;10.64;43.51
52745;BME280;38637;49.984;20.426;2023-04-26T12:55:32;99073.88;;;10.46;46.97
52745;BME280;38637;49.984;20.426;2023-04-26T12:57:57;99080.44;;;10.55;48.38
52745;BME280;38637;49.984;20.426;2023-04-26T13:00:23;99084.81;;;10.51;48.04
52745;BME280;38637;49.984;20.426;2023-04-26T13:02:48;99082.56;;;10.32;47.67
52745;BME280;38637;49.984;20.426;2023-04-26T13:05:14;99081.75;;;10.32;48.73
52745;BME280;38637;49.984;20.426;2023-04-26T13:07:42;99079.38;;;10.56;46.33
52745;BME280;38637;49.984;20.426;2023-04-26T13:10:08;99071.78;;;10.84;45.04
52745;BME280;38637;49.984;20.426;2023-04-26T13:12:35;99070.19;;;11.18;44.29
52745;BME280;38637;49.984;20.426;2023-04-26T13:15:00;99067.69;;;11.53;44.71
52745;BME280;38637;49.984;20.426;2023-04-26T13:17:26;99068.22;;;11.60;44.16